createdAt,value
2023-05-22T00:02:17.888Z,102232.30
2023-05-22T00:05:12.545Z,102229.49
2023-05-22T00:08:06.799Z,102231.48
2023-05-22T00:11:01.090Z,102226.96
2023-05-22T00:14:04.600Z,102227.38
2023-05-22T00:16:58.589Z,102227.45
2023-05-22T00:20:04.050Z,102227.33
2023-05-22T00:23:03.398Z,102229.38
2023-05-22T00:26:09.783Z,102227.25
2023-05-22T00:29:20.733Z,102222.54
2023-05-22T00:32:14.337Z,102224.38
2023-05-22T00:35:06.736Z,102224.49
2023-05-22T00:38:31.231Z,102222.64
2023-05-22T00:41:24.327Z,102223.98
2023-05-22T00:44:35.302Z,102227.27
2023-05-22T00:47:38.945Z,102226.48
2023-05-22T00:50:38.835Z,102224.29
2023-05-22T00:53:39.477Z,102224.42
2023-05-22T00:56:35.711Z,102222.36
2023-05-22T00:59:46.652Z,102221.79
2023-05-22T01:02:57.601Z,102220.23
2023-05-22T01:06:08.741Z,102224.90
2023-05-22T01:09:01.780Z,102222.14
2023-05-22T01:12:00.113Z,102221.32
2023-05-22T01:14:55.923Z,102221.15
2023-05-22T01:17:54.777Z,102224.92
2023-05-22T01:20:52.198Z,102227.21
2023-05-22T01:24:11.790Z,102222.73
2023-05-22T01:27:19.806Z,102222.69
2023-05-22T01:30:21.330Z,102221.91
2023-05-22T01:33:15.227Z,102224.40
2023-05-22T01:36:11.855Z,102222.99
2023-05-22T01:39:13.283Z,102222.73
2023-05-22T01:42:12.498Z,102223.23
2023-05-22T01:45:10.324Z,102224.27
2023-05-22T01:48:03.506Z,102226.39
2023-05-22T01:50:58.956Z,102230.82
2023-05-22T01:53:58.877Z,102229.90
2023-05-22T01:56:56.188Z,102229.77
2023-05-22T02:00:02.659Z,102236.71
2023-05-22T02:02:58.301Z,102235.73
2023-05-22T02:05:51.472Z,102232.24
2023-05-22T02:08:43.610Z,102232.27
2023-05-22T02:11:39.560Z,102235.54
2023-05-22T02:14:31.073Z,102234.90
2023-05-22T02:17:32.393Z,102238.01
2023-05-22T02:20:31.339Z,102239.05
2023-05-22T02:23:30.003Z,102239.04
2023-05-22T02:26:40.922Z,102241.91
2023-05-22T02:29:32.098Z,102238.15
2023-05-22T02:32:43.430Z,102239.09
2023-05-22T02:35:47.255Z,102242.84
2023-05-22T02:38:58.513Z,102244.11
2023-05-22T02:42:01.017Z,102250.04
2023-05-22T02:45:13.027Z,102249.77
2023-05-22T02:48:24.258Z,102250.23
2023-05-22T02:51:18.143Z,102259.23
2023-05-22T02:54:09.073Z,102264.70
2023-05-22T02:57:02.967Z,102265.85
2023-05-22T02:59:59.392Z,102265.94
2023-05-22T03:03:04.383Z,102261.47
2023-05-22T03:06:10.604Z,102262.30
2023-05-22T03:09:21.542Z,102264.41
2023-05-22T03:12:33.139Z,102263.45
2023-05-22T03:15:26.361Z,102262.67
2023-05-22T03:18:37.984Z,102262.09
2023-05-22T03:21:42.239Z,102261.05
2023-05-22T03:24:41.913Z,102267.48
2023-05-22T03:27:52.756Z,102270.63
2023-05-22T03:30:55.624Z,102270.07
2023-05-22T03:33:51.954Z,102273.80
2023-05-22T03:37:03.255Z,102275.54
2023-05-22T03:40:07.957Z,102276.31
2023-05-22T03:43:12.653Z,102281.20
2023-05-22T03:46:23.741Z,102281.07
2023-05-22T03:49:35.191Z,102286.89
2023-05-22T03:52:35.837Z,102299.48
2023-05-22T03:55:46.654Z,102300.79
2023-05-22T03:58:48.865Z,102298.06
2023-05-22T04:02:01.542Z,102303.16
2023-05-22T04:05:05.561Z,102305.85
2023-05-22T04:08:07.531Z,102304.31
2023-05-22T04:11:18.752Z,102310.50
2023-05-22T04:14:22.096Z,102310.39
2023-05-22T04:17:36.624Z,102308.70
2023-05-22T04:20:47.759Z,102309.29
2023-05-22T04:23:58.526Z,102316.40
2023-05-22T04:27:10.128Z,102320.81
2023-05-22T04:30:17.209Z,102316.84
2023-05-22T04:33:29.182Z,102317.30
2023-05-22T04:36:40.242Z,102318.76
2023-05-22T04:39:44.545Z,102323.02
2023-05-22T04:42:42.602Z,102323.73
2023-05-22T04:45:56.933Z,102334.17
2023-05-22T04:49:08.709Z,102338.86
2023-05-22T04:52:19.912Z,102339.65
2023-05-22T04:55:34.115Z,102340.52
2023-05-22T04:58:32.234Z,102344.92
2023-05-22T05:01:25.232Z,102349.39
2023-05-22T05:04:19.110Z,102351.39
2023-05-22T05:07:12.253Z,102353.29
2023-05-22T05:10:21.819Z,102359.02
2023-05-22T05:13:26.405Z,102361.84
2023-05-22T05:16:36.253Z,102359.45
2023-05-22T05:19:47.129Z,102361.89
2023-05-22T05:22:58.062Z,102367.34
2023-05-22T05:26:09.392Z,102366.93
2023-05-22T05:29:14.263Z,102367.33
2023-05-22T05:32:25.302Z,102378.55
2023-05-22T05:35:45.482Z,102382.05
2023-05-22T05:38:54.503Z,102386.73
2023-05-22T05:41:47.871Z,102387.76
2023-05-22T05:44:58.734Z,102384.34
2023-05-22T05:48:09.893Z,102387.16
2023-05-22T05:51:07.829Z,102387.33
2023-05-22T05:54:18.646Z,102389.86
2023-05-22T05:57:14.139Z,102388.91
2023-05-22T06:00:25.913Z,102390.45
2023-05-22T06:03:27.384Z,102391.50
2023-05-22T06:06:37.112Z,102387.06
2023-05-22T06:09:56.027Z,102395.39
2023-05-22T06:13:08.662Z,102401.11
2023-05-22T06:16:04.820Z,102402.23
2023-05-22T06:19:01.187Z,102406.95
2023-05-22T06:21:55.788Z,102410.71
2023-05-22T06:24:58.000Z,102415.53
2023-05-22T06:28:03.782Z,102421.22
2023-05-22T06:30:54.947Z,102420.09
2023-05-22T06:33:46.576Z,102414.84
2023-05-22T06:36:43.939Z,102412.83
2023-05-22T06:39:40.019Z,102415.44
2023-05-22T06:43:12.556Z,102418.05
2023-05-22T06:46:26.081Z,102416.73
2023-05-22T06:49:27.441Z,102415.48
2023-05-22T06:52:21.950Z,102423.28
2023-05-22T06:55:15.437Z,102424.85
2023-05-22T06:58:26.598Z,102420.02
2023-05-22T07:01:23.748Z,102420.48
2023-05-22T07:04:37.924Z,102420.04
2023-05-22T07:07:53.190Z,102423.63
2023-05-22T07:10:57.916Z,102424.92
2023-05-22T07:14:09.189Z,102433.09
2023-05-22T07:17:22.218Z,102434.56
2023-05-22T07:20:28.462Z,102431.11
2023-05-22T07:23:51.632Z,102431.91
2023-05-22T07:26:59.065Z,102432.41
2023-05-22T07:29:52.961Z,102430.03
2023-05-22T07:32:44.974Z,102434.89
2023-05-22T07:35:47.378Z,102439.83
2023-05-22T07:38:44.744Z,102440.00
2023-05-22T07:41:35.640Z,102441.68
2023-05-22T07:44:29.294Z,102445.71
2023-05-22T07:47:20.405Z,102448.03
2023-05-22T07:50:12.705Z,102444.48
2023-05-22T07:53:08.539Z,102449.85
2023-05-22T07:56:00.688Z,102450.00
2023-05-22T07:58:54.428Z,102453.39
2023-05-22T08:01:45.502Z,102455.06
2023-05-22T08:04:36.298Z,102457.53
2023-05-22T08:07:27.163Z,102460.52
2023-05-22T08:10:24.012Z,102458.79
2023-05-22T08:13:19.687Z,102451.86
2023-05-22T08:16:11.330Z,102455.34
2023-05-22T08:19:02.007Z,102453.52
2023-05-22T08:21:58.281Z,102453.02
2023-05-22T08:24:49.107Z,102452.72
2023-05-22T08:27:39.749Z,102450.25
2023-05-22T08:30:30.523Z,102448.45
2023-05-22T08:33:21.277Z,102453.27
2023-05-22T08:36:12.081Z,102452.17
2023-05-22T08:39:07.864Z,102453.48
2023-05-22T08:41:59.642Z,102453.18
2023-05-22T08:44:50.356Z,102450.00
2023-05-22T08:47:45.267Z,102451.16
2023-05-22T08:50:38.708Z,102447.20
2023-05-22T08:53:30.216Z,102446.57
2023-05-22T08:56:21.610Z,102444.88
2023-05-22T08:59:12.863Z,102443.20
2023-05-22T09:02:06.828Z,102442.42
2023-05-22T09:04:57.749Z,102436.17
2023-05-22T09:07:49.156Z,102439.34
2023-05-22T09:10:40.225Z,102442.23
2023-05-22T09:13:31.654Z,102437.04
2023-05-22T09:16:22.701Z,102439.75
2023-05-22T09:19:14.100Z,102440.02
2023-05-22T09:22:06.506Z,102441.02
2023-05-22T09:24:59.426Z,102436.41
2023-05-22T09:27:49.798Z,102433.13
2023-05-22T09:30:42.768Z,102426.17
2023-05-22T09:33:33.705Z,102427.41
2023-05-22T09:36:32.616Z,102420.08
2023-05-22T09:39:23.143Z,102425.09
2023-05-22T09:42:18.288Z,102425.75
2023-05-22T09:45:10.214Z,102429.52
2023-05-22T09:48:01.066Z,102432.31
2023-05-22T09:50:52.312Z,102430.97
2023-05-22T09:53:44.372Z,102429.20
2023-05-22T09:56:39.753Z,102426.50
2023-05-22T09:59:33.198Z,102422.77
2023-05-22T10:02:24.412Z,102419.61
2023-05-22T10:05:22.155Z,102427.37
2023-05-22T10:08:15.529Z,102429.02
2023-05-22T10:11:07.477Z,102429.51
2023-05-22T10:13:59.046Z,102416.68
2023-05-22T10:16:53.659Z,102418.39
2023-05-22T10:19:45.378Z,102426.16
2023-05-22T10:22:37.975Z,102432.67
2023-05-22T10:25:28.807Z,102431.84
2023-05-22T10:28:36.905Z,102437.64
2023-05-22T10:31:30.189Z,102437.52
2023-05-22T10:34:42.764Z,102436.48
2023-05-22T10:37:44.553Z,102436.14
2023-05-22T10:40:36.559Z,102435.92
2023-05-22T10:43:31.167Z,102432.88
2023-05-22T10:46:22.696Z,102431.75
2023-05-22T10:49:22.709Z,102433.08
2023-05-22T10:52:15.058Z,102434.11
2023-05-22T10:55:09.561Z,102430.06
2023-05-22T10:58:13.907Z,102431.45
2023-05-22T11:01:15.012Z,102434.58
2023-05-22T11:04:12.523Z,102436.11
2023-05-22T11:07:09.009Z,102442.71
2023-05-22T11:10:02.833Z,102441.48
2023-05-22T11:13:12.710Z,102437.91
2023-05-22T11:16:06.112Z,102426.64
2023-05-22T11:19:21.138Z,102418.85
2023-05-22T11:22:14.089Z,102412.41
2023-05-22T11:25:07.711Z,102403.95
2023-05-22T11:27:58.997Z,102406.00
2023-05-22T11:30:49.704Z,102404.73
2023-05-22T11:33:40.469Z,102402.95
2023-05-22T11:36:31.856Z,102409.23
2023-05-22T11:39:24.434Z,102407.98
2023-05-22T11:42:15.158Z,102403.61
2023-05-22T11:45:06.170Z,102406.63
2023-05-22T11:47:56.931Z,102411.73
2023-05-22T11:50:48.443Z,102410.52
2023-05-22T11:53:39.130Z,102410.39
2023-05-22T11:56:29.413Z,102409.94
2023-05-22T11:59:22.260Z,102410.44
2023-05-22T12:02:13.752Z,102411.55
2023-05-22T12:05:04.734Z,102413.13
2023-05-22T12:07:55.518Z,102415.80
2023-05-22T12:10:50.703Z,102412.88
2023-05-22T12:13:41.922Z,102405.84
2023-05-22T12:16:35.695Z,102401.07
2023-05-22T12:19:26.970Z,102397.95
2023-05-22T12:22:17.671Z,102402.19
2023-05-22T12:25:13.986Z,102405.02
2023-05-22T12:28:04.148Z,102409.68
2023-05-22T12:30:57.983Z,102406.66
2023-05-22T12:33:48.496Z,102401.64
2023-05-22T12:36:41.993Z,102400.31
2023-05-22T12:39:32.603Z,102399.19
2023-05-22T12:42:23.298Z,102396.13
2023-05-22T12:45:14.577Z,102390.05
2023-05-22T12:48:05.232Z,102394.70
2023-05-22T12:50:56.053Z,102399.73
2023-05-22T12:53:46.921Z,102406.98
2023-05-22T12:56:37.494Z,102400.66
2023-05-22T12:59:28.028Z,102405.14
2023-05-22T13:02:18.823Z,102413.03
2023-05-22T13:05:09.874Z,102412.41
2023-05-22T13:08:00.867Z,102414.62
2023-05-22T13:10:51.530Z,102409.86
2023-05-22T13:13:42.013Z,102406.53
2023-05-22T13:16:33.338Z,102412.63
2023-05-22T13:19:24.004Z,102417.12
2023-05-22T13:22:14.968Z,102413.23
2023-05-22T13:25:05.812Z,102420.16
2023-05-22T13:27:56.728Z,102422.97
2023-05-22T13:30:47.570Z,102424.06
2023-05-22T13:33:38.256Z,102427.68
2023-05-22T13:36:29.144Z,102423.91
2023-05-22T13:39:20.064Z,102415.75
2023-05-22T13:42:10.707Z,102420.69
2023-05-22T13:45:01.187Z,102423.93
2023-05-22T13:47:51.761Z,102435.65
2023-05-22T13:50:42.354Z,102433.49
2023-05-22T13:53:33.293Z,102424.67
2023-05-22T13:56:24.187Z,102429.14
2023-05-22T13:59:15.058Z,102437.09
2023-05-22T14:02:06.134Z,102435.30
2023-05-22T14:04:56.937Z,102441.48
2023-05-22T14:07:47.675Z,102440.61
2023-05-22T14:10:38.974Z,102442.55
2023-05-22T14:13:29.504Z,102448.87
2023-05-22T14:16:20.260Z,102446.83
2023-05-22T14:19:11.080Z,102442.69
2023-05-22T14:22:01.895Z,102436.29
2023-05-22T14:24:52.890Z,102435.46
2023-05-22T14:27:45.962Z,102443.73
2023-05-22T14:30:36.697Z,102446.99
2023-05-22T14:33:27.245Z,102452.02
2023-05-22T14:36:18.032Z,102453.13
2023-05-22T14:39:08.708Z,102455.93
2023-05-22T14:41:59.668Z,102448.36
2023-05-22T14:44:50.372Z,102444.40
2023-05-22T14:47:43.294Z,102442.29
2023-05-22T14:50:33.885Z,102443.99
2023-05-22T14:53:24.772Z,102433.94
2023-05-22T14:56:15.777Z,102433.56
2023-05-22T14:59:06.601Z,102432.77
2023-05-22T15:01:57.217Z,102437.77
2023-05-22T15:04:48.032Z,102442.73
2023-05-22T15:07:44.645Z,102446.79
2023-05-22T15:10:39.735Z,102449.06
2023-05-22T15:13:30.373Z,102442.96
2023-05-22T15:16:23.186Z,102440.13
2023-05-22T15:19:14.031Z,102436.38
2023-05-22T15:22:18.239Z,102432.70
2023-05-22T15:25:12.008Z,102431.58
2023-05-22T15:28:02.764Z,102433.52
2023-05-22T15:30:54.118Z,102431.79
2023-05-22T15:33:44.751Z,102430.96
2023-05-22T15:36:36.706Z,102430.26
2023-05-22T15:39:30.555Z,102430.65
2023-05-22T15:42:22.073Z,102434.71
2023-05-22T15:45:13.349Z,102439.04
2023-05-22T15:48:05.011Z,102446.02
2023-05-22T15:50:55.301Z,102447.65
2023-05-22T15:53:46.456Z,102448.58
2023-05-22T15:56:37.008Z,102441.27
2023-05-22T15:59:27.546Z,102441.61
2023-05-22T16:02:21.127Z,102439.91
2023-05-22T16:05:12.237Z,102444.55
2023-05-22T16:08:03.205Z,102445.80
2023-05-22T16:10:55.701Z,102445.99
2023-05-22T16:13:55.778Z,102456.25
2023-05-22T16:16:46.429Z,102459.77
2023-05-22T16:19:40.287Z,102463.22
2023-05-22T16:22:44.075Z,102459.44
2023-05-22T16:25:39.296Z,102452.75
2023-05-22T16:28:30.798Z,102451.73
2023-05-22T16:31:21.691Z,102454.55
2023-05-22T16:34:12.489Z,102455.00
2023-05-22T16:37:03.282Z,102458.24
2023-05-22T16:39:53.909Z,102461.79
2023-05-22T16:42:44.765Z,102463.34
2023-05-22T16:45:35.937Z,102455.56
2023-05-22T16:48:26.985Z,102452.69
2023-05-22T16:51:17.665Z,102448.05
2023-05-22T16:54:08.493Z,102449.16
2023-05-22T16:56:59.290Z,102452.17
2023-05-22T16:59:50.797Z,102453.44
2023-05-22T17:02:41.967Z,102449.00
2023-05-22T17:05:36.276Z,102446.56
2023-05-22T17:08:29.622Z,102455.44
2023-05-22T17:11:20.180Z,102454.54
2023-05-22T17:14:11.598Z,102449.02
2023-05-22T17:17:02.597Z,102447.62
2023-05-22T17:19:54.349Z,102448.77
2023-05-22T17:22:45.239Z,102449.63
2023-05-22T17:25:38.658Z,102451.56
2023-05-22T17:28:29.364Z,102453.91
2023-05-22T17:31:23.876Z,102451.46
2023-05-22T17:34:14.508Z,102448.48
2023-05-22T17:37:08.046Z,102447.85
2023-05-22T17:39:58.525Z,102448.48
2023-05-22T17:42:48.994Z,102452.04
2023-05-22T17:45:39.788Z,102452.77
2023-05-22T17:48:30.429Z,102455.59
2023-05-22T17:51:21.289Z,102452.51
2023-05-22T17:54:11.913Z,102455.09
2023-05-22T17:57:04.224Z,102458.63
2023-05-22T17:59:54.721Z,102460.27
2023-05-22T18:02:48.209Z,102460.13
2023-05-22T18:05:39.191Z,102463.29
2023-05-22T18:08:32.118Z,102464.31
2023-05-22T18:11:22.716Z,102463.13
2023-05-22T18:14:13.412Z,102467.67
2023-05-22T18:17:07.890Z,102467.17
2023-05-22T18:19:58.580Z,102469.73
2023-05-22T18:22:52.181Z,102475.08
2023-05-22T18:25:43.480Z,102478.30
2023-05-22T18:28:36.483Z,102477.91
2023-05-22T18:31:36.035Z,102474.61
2023-05-22T18:34:32.528Z,102474.11
2023-05-22T18:37:26.251Z,102479.55
2023-05-22T18:40:19.077Z,102481.87
2023-05-22T18:43:12.019Z,102478.91
2023-05-22T18:46:02.876Z,102485.79
2023-05-22T18:48:56.676Z,102495.66
2023-05-22T18:52:07.649Z,102499.06
2023-05-22T18:55:23.322Z,102498.86
2023-05-22T18:58:23.124Z,102501.14
2023-05-22T19:01:13.840Z,102505.58
2023-05-22T19:04:12.647Z,102505.35
2023-05-22T19:07:08.992Z,102506.60
2023-05-22T19:09:59.769Z,102505.97
2023-05-22T19:12:53.575Z,102509.45
2023-05-22T19:15:44.371Z,102512.81
2023-05-22T19:18:35.150Z,102517.77
2023-05-22T19:21:26.561Z,102517.36
2023-05-22T19:24:17.673Z,102517.74
2023-05-22T19:27:11.458Z,102527.73
2023-05-22T19:30:22.027Z,102532.04
2023-05-22T19:33:14.882Z,102538.60
2023-05-22T19:36:15.560Z,102538.61
2023-05-22T19:39:16.607Z,102535.23
2023-05-22T19:42:09.643Z,102537.52
2023-05-22T19:45:02.283Z,102547.52
2023-05-22T19:47:52.828Z,102549.05
2023-05-22T19:50:43.517Z,102553.92
2023-05-22T19:53:54.258Z,102561.59
2023-05-22T19:56:45.003Z,102565.20
2023-05-22T19:59:43.271Z,102568.25
2023-05-22T20:02:34.237Z,102572.06
2023-05-22T20:05:36.554Z,102571.46
2023-05-22T20:08:30.541Z,102571.27
2023-05-22T20:11:29.303Z,102575.02
2023-05-22T20:14:22.720Z,102581.50
2023-05-22T20:17:13.650Z,102589.42
2023-05-22T20:20:08.119Z,102588.67
2023-05-22T20:23:01.943Z,102590.30
2023-05-22T20:26:02.196Z,102592.55
2023-05-22T20:28:53.050Z,102596.10
2023-05-22T20:31:43.923Z,102606.38
2023-05-22T20:34:36.981Z,102609.96
2023-05-22T20:37:34.915Z,102609.55
2023-05-22T20:40:30.162Z,102613.73
2023-05-22T20:43:20.602Z,102617.80
2023-05-22T20:46:14.512Z,102625.57
2023-05-22T20:49:09.103Z,102626.32
2023-05-22T20:52:03.010Z,102623.89
2023-05-22T20:54:57.271Z,102630.30
2023-05-22T20:57:57.655Z,102632.35
2023-05-22T21:00:59.069Z,102638.11
2023-05-22T21:03:59.969Z,102635.89
2023-05-22T21:07:00.022Z,102631.76
2023-05-22T21:10:00.954Z,102636.54
2023-05-22T21:12:54.466Z,102641.85
2023-05-22T21:15:54.437Z,102649.15
2023-05-22T21:18:53.768Z,102650.14
2023-05-22T21:21:46.814Z,102655.14
2023-05-22T21:24:37.520Z,102656.42
2023-05-22T21:27:28.257Z,102656.67
2023-05-22T21:30:39.555Z,102660.75
2023-05-22T21:33:33.960Z,102660.03
2023-05-22T21:36:28.117Z,102662.12
2023-05-22T21:39:18.915Z,102664.73
2023-05-22T21:42:10.237Z,102662.56
2023-05-22T21:45:11.787Z,102661.09
2023-05-22T21:48:11.664Z,102659.65
2023-05-22T21:51:05.685Z,102661.48
2023-05-22T21:54:16.948Z,102660.79
2023-05-22T21:57:08.282Z,102660.15
2023-05-22T22:00:02.241Z,102668.07
2023-05-22T22:02:57.592Z,102670.21
2023-05-22T22:06:09.673Z,102676.58
2023-05-22T22:09:03.668Z,102682.46
2023-05-22T22:12:14.814Z,102679.48
2023-05-22T22:15:08.712Z,102682.86
2023-05-22T22:18:02.697Z,102679.53
2023-05-22T22:20:56.227Z,102682.89
2023-05-22T22:23:52.133Z,102685.73
2023-05-22T22:27:03.811Z,102687.17
2023-05-22T22:29:57.438Z,102690.29
2023-05-22T22:33:04.470Z,102691.84
2023-05-22T22:35:59.898Z,102689.56
2023-05-22T22:38:52.778Z,102693.42
2023-05-22T22:41:46.662Z,102693.80
2023-05-22T22:44:37.383Z,102692.98
2023-05-22T22:47:30.368Z,102694.71
2023-05-22T22:50:24.463Z,102699.27
2023-05-22T22:53:35.206Z,102698.05
2023-05-22T22:56:39.536Z,102698.46
2023-05-22T22:59:50.397Z,102700.93
2023-05-22T23:02:51.385Z,102702.65
2023-05-22T23:06:06.523Z,102706.45
2023-05-22T23:08:59.141Z,102707.44
2023-05-22T23:12:01.610Z,102715.05
2023-05-22T23:14:55.600Z,102722.03
2023-05-22T23:17:59.214Z,102724.48
2023-05-22T23:21:00.740Z,102725.21
2023-05-22T23:24:06.146Z,102723.27
2023-05-22T23:27:16.966Z,102720.71
2023-05-22T23:30:26.871Z,102724.01
2023-05-22T23:33:36.401Z,102723.55
2023-05-22T23:36:46.657Z,102725.17
2023-05-22T23:39:50.347Z,102725.41
2023-05-22T23:42:41.020Z,102729.37
2023-05-22T23:45:51.838Z,102724.96
2023-05-22T23:49:02.546Z,102727.41
2023-05-22T23:52:04.340Z,102728.52
2023-05-22T23:55:15.149Z,102723.22
2023-05-22T23:58:16.135Z,102729.77
